Terminal Aerodrome Forecast
Issued by NWS Mt. Holly, NJ

Home | Current Version | Previous Version | Text Only | Print | Product List | Glossary On
Versions: 1 2 3 4 5 6 7 8 9 10 11 12 13 14
000
FTUS41 KPHI 031725
TAFILG
TAF
KILG 031725Z 0318/0418 22010G20KT P6SM SCT050
     FM032200 21008KT P6SM FEW050 SCT200
     FM040300 23005KT P6SM FEW060 SCT100 BKN200
     FM041100 23007KT P6SM FEW250
     FM041400 26009G19KT P6SM SCT050=

USA.gov is the U.S. government's official web portal to all federal, state and local government web resources and services.